Terminal Aerodrome Forecast
Issued by NWS

Home | Current Version | Previous Version | Text Only | Print | Product List | Glossary On
Versions: 1 2 3 4 5 6 7 8 9 10 11 12 13 14 15 16 17 18 19 20 21 22 23 24 25 26 27 28
615
FTUS43 KILX 302338
TAFCMI
TAF
KCMI 302338Z 0100/0124 14007KT 3SM BR VCSH SCT005 BKN025
     FM010300 12007KT P6SM VCTS SCT008CB BKN025
     FM010600 14004KT 2SM BR OVC003
      TEMPO 0108/0112 1/2SM FG
     FM011700 35005KT P6SM VCSH BKN015
     FM012200 31010KT P6SM VCSH BKN035=

USA.gov is the U.S. government's official web portal to all federal, state and local government web resources and services.